Time;durP1;ratioP1;P1;durP2;ratioP2;P2;SDS_P1;SDS_P2;PMS_P1;PMS_P2;Temp;Humidity;BMP_temperature;BMP_pressure;BME280_temperature;BME280_humidity;BME280_pressure;Samples;Min_cycle;Max_cycle;Signal;HPM_P1;HPM_P2
2021/07/07 00:01:03;;;;;;;1.50;1.30;;;26.10;80.10;;;;;;6190681;23;20457;-94
2021/07/07 00:03:30;;;;;;;1.77;1.17;;;26.10;80.10;;;;;;6189123;23;20898;-94
2021/07/07 00:05:57;;;;;;;1.10;0.90;;;26.10;80.10;;;;;;6189954;23;20453;-94
2021/07/07 00:08:24;;;;;;;2.13;0.90;;;26.10;81.00;;;;;;6190500;23;20446;-95
2021/07/07 00:10:52;;;;;;;2.90;0.93;;;26.10;80.10;;;;;;6188963;23;20414;-94
2021/07/07 00:13:19;;;;;;;1.93;1.20;;;26.10;80.10;;;;;;6189429;23;20413;-93
2021/07/07 00:15:49;;;;;;;1.40;1.03;;;26.00;80.00;;;;;;6194486;23;20478;-94
2021/07/07 00:18:17;;;;;;;1.10;0.90;;;26.10;80.10;;;;;;6190209;23;20881;-94
2021/07/07 00:20:47;;;;;;;2.13;1.10;;;26.10;80.10;;;;;;6189134;23;20975;-94
2021/07/07 00:23:16;;;;;;;1.10;0.90;;;26.10;80.00;;;;;;6189812;23;20465;-94
2021/07/07 00:25:43;;;;;;;1.70;1.00;;;26.10;80.00;;;;;;6189729;23;20420;-94
2021/07/07 00:28:10;;;;;;;1.40;1.00;;;26.10;80.00;;;;;;6189508;23;20445;-94
2021/07/07 00:30:37;;;;;;;1.23;1.13;;;26.10;80.00;;;;;;6189845;23;20444;-94
2021/07/07 00:33:06;;;;;;;1.20;1.10;;;26.10;80.00;;;;;;6189745;23;20413;-94
2021/07/07 00:35:33;;;;;;;1.10;1.00;;;26.10;80.00;;;;;;6189513;23;20460;-95
2021/07/07 00:38:00;;;;;;;1.00;0.80;;;26.10;80.00;;;;;;6190475;23;20480;-94
2021/07/07 00:40:27;;;;;;;1.03;0.80;;;26.10;80.00;;;;;;6190232;23;20415;-95
2021/07/07 00:42:54;;;;;;;1.10;0.90;;;26.10;80.00;;;;;;6189827;23;20468;-94
2021/07/07 00:45:21;;;;;;;1.10;0.80;;;26.10;79.90;;;;;;6190122;23;20413;-95
2021/07/07 00:47:48;;;;;;;1.20;0.90;;;26.10;80.00;;;;;;6188566;23;20916;-94
2021/07/07 00:50:17;;;;;;;0.93;0.80;;;26.10;80.00;;;;;;6189235;23;20453;-95
2021/07/07 00:52:45;;;;;;;1.10;0.90;;;26.10;79.90;;;;;;6189120;23;20418;-94
2021/07/07 00:55:16;;;;;;;1.63;0.90;;;26.10;79.90;;;;;;6190259;23;20410;-94
2021/07/07 00:57:44;;;;;;;1.30;1.13;;;26.10;79.90;;;;;;6189592;23;20414;-94
2021/07/07 01:00:14;;;;;;;1.40;1.10;;;26.00;79.80;;;;;;6188542;23;20418;-94
2021/07/07 01:02:43;;;;;;;1.50;0.97;;;26.10;79.90;;;;;;6188936;23;20452;-94
2021/07/07 01:05:18;;;;;;;1.00;0.87;;;26.10;79.90;;;;;;6192875;23;20431;-94
2021/07/07 01:07:47;;;;;;;1.10;0.87;;;26.10;79.90;;;;;;6190424;23;20429;-94
2021/07/07 01:10:15;;;;;;;1.20;0.90;;;26.00;79.70;;;;;;6189455;23;20445;-95
2021/07/07 01:12:45;;;;;;;1.40;0.90;;;26.00;79.70;;;;;;6189797;23;20730;-95
2021/07/07 01:15:14;;;;;;;1.20;0.80;;;26.00;79.70;;;;;;6189990;23;20410;-94
2021/07/07 01:17:41;;;;;;;1.20;0.90;;;26.00;79.70;;;;;;6189158;23;20415;-94
2021/07/07 01:20:11;;;;;;;1.20;1.00;;;26.00;79.70;;;;;;6190495;23;20418;-94
2021/07/07 01:22:43;;;;;;;1.10;0.97;;;26.00;79.70;;;;;;6189245;23;20456;-94
2021/07/07 01:25:12;;;;;;;1.10;0.90;;;26.00;79.70;;;;;;6189633;23;20438;-95
2021/07/07 01:27:41;;;;;;;1.03;0.80;;;26.00;79.70;;;;;;6188965;23;20410;-94
2021/07/07 01:30:11;;;;;;;3.57;1.03;;;26.00;79.80;;;;;;6188952;23;20738;-95
2021/07/07 01:32:38;;;;;;;1.17;1.00;;;26.00;79.70;;;;;;6188625;23;20405;-94
2021/07/07 01:35:05;;;;;;;1.10;1.00;;;26.00;79.70;;;;;;6188316;23;20815;-94
2021/07/07 01:37:32;;;;;;;1.50;1.40;;;26.00;79.70;;;;;;6188585;23;20446;-95
2021/07/07 01:40:01;;;;;;;1.40;1.10;;;26.00;79.70;;;;;;6189024;23;20413;-94
2021/07/07 01:42:29;;;;;;;1.70;1.00;;;26.00;79.70;;;;;;6189469;23;20429;-95
2021/07/07 01:44:59;;;;;;;1.30;0.90;;;26.00;79.70;;;;;;6188853;23;20407;-94
2021/07/07 01:47:27;;;;;;;1.40;0.97;;;26.10;79.80;;;;;;6187922;23;20414;-94
2021/07/07 01:49:54;;;;;;;1.00;0.80;;;26.00;79.70;;;;;;6188419;23;20814;-94
2021/07/07 01:52:21;;;;;;;1.30;1.10;;;26.00;79.60;;;;;;6189730;23;20414;-95
2021/07/07 01:54:48;;;;;;;1.10;0.90;;;26.00;79.60;;;;;;6187278;23;20411;-94
2021/07/07 01:57:17;;;;;;;1.20;0.90;;;26.00;79.70;;;;;;6187911;23;20749;-94
2021/07/07 01:59:44;;;;;;;1.07;0.93;;;26.00;79.60;;;;;;6188394;23;20755;-95
2021/07/07 02:02:11;;;;;;;1.30;1.00;;;26.00;79.60;;;;;;6188156;23;20410;-94
2021/07/07 02:04:38;;;;;;;2.03;0.80;;;26.00;79.60;;;;;;6188773;23;20972;-94
2021/07/07 02:07:05;;;;;;;1.33;1.10;;;26.00;79.60;;;;;;6187831;23;20411;-94
2021/07/07 02:09:32;;;;;;;1.10;1.00;;;26.00;79.50;;;;;;6187683;23;20521;-94
2021/07/07 02:12:00;;;;;;;1.17;0.90;;;25.90;79.50;;;;;;6188755;23;20418;-94
2021/07/07 02:14:29;;;;;;;1.13;0.90;;;26.00;79.60;;;;;;6188403;23;20413;-95
2021/07/07 02:16:56;;;;;;;1.20;0.90;;;26.00;79.60;;;;;;6188231;23;20846;-93
2021/07/07 02:19:23;;;;;;;1.20;1.10;;;26.00;79.60;;;;;;6189452;23;20406;-95
2021/07/07 02:21:50;;;;;;;1.10;1.00;;;26.00;79.60;;;;;;6188456;23;20406;-94
2021/07/07 02:24:22;;;;;;;1.00;0.90;;;26.00;79.60;;;;;;6189153;23;20476;-94
2021/07/07 02:26:49;;;;;;;1.90;1.40;;;26.00;79.60;;;;;;6187640;23;20406;-95
2021/07/07 02:29:16;;;;;;;1.33;1.00;;;26.00;79.60;;;;;;6188298;23;20444;-94
2021/07/07 02:31:45;;;;;;;1.23;1.07;;;26.00;79.60;;;;;;6189348;23;20402;-94
2021/07/07 02:34:12;;;;;;;1.33;1.20;;;26.00;79.60;;;;;;6189175;23;20429;-95
2021/07/07 02:36:39;;;;;;;1.03;0.93;;;26.00;79.60;;;;;;6191853;23;20411;-93
2021/07/07 02:39:13;;;;;;;1.33;1.23;;;26.00;79.60;;;;;;6193864;23;20407;-92
2021/07/07 02:41:40;;;;;;;2.40;1.20;;;26.00;79.50;;;;;;6193068;23;20413;-94
2021/07/07 02:44:08;;;;;;;1.30;1.00;;;26.00;79.60;;;;;;6189520;23;20495;-94
2021/07/07 02:46:37;;;;;;;1.30;1.20;;;26.00;79.70;;;;;;6187961;23;20410;-94
2021/07/07 02:49:05;;;;;;;1.17;1.07;;;26.00;79.70;;;;;;6187891;23;20821;-94
2021/07/07 02:51:32;;;;;;;1.50;1.40;;;26.00;79.70;;;;;;6187961;23;20422;-94
2021/07/07 02:53:59;;;;;;;2.03;1.10;;;26.00;79.60;;;;;;6187939;23;20417;-95
2021/07/07 02:56:28;;;;;;;2.03;1.20;;;26.00;79.60;;;;;;6188560;23;20465;-95
2021/07/07 02:58:57;;;;;;;1.23;1.00;;;26.00;79.60;;;;;;6187901;23;20894;-95
2021/07/07 03:01:24;;;;;;;1.20;1.00;;;26.00;79.60;;;;;;6188566;23;20462;-94
2021/07/07 03:03:52;;;;;;;1.20;1.00;;;26.00;79.60;;;;;;6192590;23;20867;-94
2021/07/07 03:06:22;;;;;;;1.20;1.00;;;26.00;79.60;;;;;;6188248;23;20416;-94
2021/07/07 03:08:52;;;;;;;1.27;1.17;;;26.00;79.70;;;;;;6186731;23;20984;-94
2021/07/07 03:11:19;;;;;;;1.87;1.17;;;26.00;79.60;;;;;;6188247;23;20411;-94
2021/07/07 03:13:46;;;;;;;1.67;1.10;;;26.00;79.60;;;;;;6187234;23;20441;-94
2021/07/07 03:16:13;;;;;;;1.40;0.90;;;26.00;79.50;;;;;;6187579;23;20421;-95
2021/07/07 03:18:40;;;;;;;1.20;1.10;;;26.00;79.60;;;;;;6187784;23;20425;-94
2021/07/07 03:21:18;;;;;;;1.23;1.10;;;25.90;79.50;;;;;;6194795;23;20421;-94
2021/07/07 03:23:48;;;;;;;1.03;0.93;;;25.80;79.30;;;;;;6190269;23;20406;-94
2021/07/07 03:26:15;;;;;;;1.30;1.20;;;26.00;79.50;;;;;;6188884;23;20470;-94
2021/07/07 03:28:42;;;;;;;1.10;1.00;;;26.00;79.50;;;;;;6190825;23;20461;-94
2021/07/07 03:31:09;;;;;;;2.13;1.20;;;26.00;79.40;;;;;;6190426;23;20722;-94
2021/07/07 03:33:36;;;;;;;1.20;1.00;;;26.00;79.40;;;;;;6189632;23;20414;-95
2021/07/07 03:36:04;;;;;;;1.10;1.00;;;25.90;79.40;;;;;;6189921;23;20437;-94
2021/07/07 03:38:31;;;;;;;1.40;1.13;;;26.00;79.40;;;;;;6189615;23;20417;-94
2021/07/07 03:41:01;;;;;;;1.13;1.00;;;26.00;79.40;;;;;;6190085;23;20406;-94
2021/07/07 03:43:28;;;;;;;1.30;1.20;;;26.00;79.40;;;;;;6189357;23;20428;-94
2021/07/07 03:45:55;;;;;;;2.03;1.17;;;25.90;79.50;;;;;;6190124;23;20873;-95
2021/07/07 03:48:22;;;;;;;1.50;1.10;;;26.00;79.50;;;;;;6188962;23;20480;-95
2021/07/07 03:50:49;;;;;;;1.50;1.10;;;25.90;79.40;;;;;;6190694;23;20766;-94
2021/07/07 03:53:19;;;;;;;1.23;0.90;;;25.90;79.40;;;;;;6194025;23;20442;-95
2021/07/07 03:55:47;;;;;;;1.23;1.13;;;26.00;79.40;;;;;;6188851;23;20414;-94
2021/07/07 03:58:17;;;;;;;1.53;1.17;;;25.90;79.30;;;;;;6189092;23;20772;-94
2021/07/07 04:00:44;;;;;;;1.23;1.13;;;25.90;79.30;;;;;;6189582;23;20946;-94
2021/07/07 04:03:14;;;;;;;1.30;1.03;;;25.90;79.30;;;;;;6188752;23;20737;-94
2021/07/07 04:05:41;;;;;;;1.30;1.00;;;25.90;79.30;;;;;;6188696;23;20424;-94
2021/07/07 04:08:08;;;;;;;1.77;1.57;;;25.90;79.40;;;;;;6193476;23;20436;-94
2021/07/07 04:10:35;;;;;;;1.20;0.90;;;25.90;79.40;;;;;;6215096;23;20442;-94
2021/07/07 04:13:02;;;;;;;1.00;0.90;;;25.90;79.40;;;;;;6215265;23;20433;-94
2021/07/07 04:15:32;;;;;;;1.30;1.10;;;25.90;79.40;;;;;;6215135;23;20402;-95
2021/07/07 04:17:59;;;;;;;1.20;1.10;;;25.90;79.30;;;;;;6196731;23;20415;-94
2021/07/07 04:20:26;;;;;;;1.20;0.93;;;25.90;79.30;;;;;;6193449;23;20424;-94
2021/07/07 04:22:54;;;;;;;1.43;1.00;;;25.90;79.30;;;;;;6196443;23;20438;-94
2021/07/07 04:25:21;;;;;;;1.43;1.33;;;26.00;79.40;;;;;;6190066;23;20437;-94
2021/07/07 04:27:52;;;;;;;1.00;0.90;;;25.90;79.30;;;;;;6188450;23;20470;-94
2021/07/07 04:30:20;;;;;;;1.40;1.30;;;25.90;79.30;;;;;;6189550;23;20466;-94
2021/07/07 04:32:49;;;;;;;1.30;1.00;;;25.90;79.30;;;;;;6188971;23;20440;-94
2021/07/07 04:35:17;;;;;;;1.10;0.90;;;25.90;79.30;;;;;;6189304;23;20432;-93
2021/07/07 04:37:45;;;;;;;1.33;1.20;;;25.90;79.40;;;;;;6190289;23;20438;-93
2021/07/07 04:40:13;;;;;;;1.20;0.90;;;25.90;79.40;;;;;;6189801;23;20488;-94
2021/07/07 04:42:40;;;;;;;1.57;1.20;;;25.90;79.30;;;;;;6188881;23;20418;-94
2021/07/07 04:45:09;;;;;;;1.20;1.00;;;25.90;79.40;;;;;;6189072;23;20883;-93
2021/07/07 04:47:39;;;;;;;1.10;1.00;;;25.90;79.40;;;;;;6189159;23;20780;-94
2021/07/07 04:50:11;;;;;;;1.00;0.90;;;25.90;79.40;;;;;;6190261;23;20468;-94
2021/07/07 04:52:39;;;;;;;1.17;1.00;;;25.90;79.40;;;;;;6194014;23;20446;-94
2021/07/07 04:55:07;;;;;;;1.20;0.97;;;25.90;79.40;;;;;;6188476;23;20414;-94
2021/07/07 04:57:40;;;;;;;1.60;1.20;;;25.90;79.40;;;;;;6188070;23;20504;-94
2021/07/07 05:00:12;;;;;;;2.00;1.33;;;25.90;79.50;;;;;;6188932;23;20930;-94
2021/07/07 05:02:41;;;;;;;1.10;1.00;;;25.90;79.50;;;;;;6188838;23;20406;-94
2021/07/07 05:05:11;;;;;;;1.70;1.00;;;25.90;79.50;;;;;;6189284;23;20788;-94
2021/07/07 05:07:39;;;;;;;1.40;1.13;;;25.90;79.50;;;;;;6188342;23;20410;-94
2021/07/07 05:10:08;;;;;;;1.10;0.80;;;25.90;79.40;;;;;;6187263;23;20968;-95
2021/07/07 05:12:35;;;;;;;1.20;1.10;;;25.90;79.50;;;;;;6188149;23;20884;-94
2021/07/07 05:15:03;;;;;;;1.00;0.80;;;25.90;79.40;;;;;;6188318;23;20493;-94
2021/07/07 05:17:31;;;;;;;1.30;1.17;;;25.90;79.40;;;;;;6188584;23;20411;-94
2021/07/07 05:19:58;;;;;;;1.33;1.00;;;25.90;79.50;;;;;;6189485;23;20406;-93
2021/07/07 05:22:27;;;;;;;1.27;1.17;;;25.90;79.50;;;;;;6188555;23;20908;-94
2021/07/07 05:24:54;;;;;;;1.30;1.10;;;25.90;79.50;;;;;;6189466;23;20414;-94
2021/07/07 05:27:21;;;;;;;1.10;0.87;;;25.90;79.50;;;;;;6197955;23;20882;-94
2021/07/07 05:29:48;;;;;;;1.50;1.10;;;25.90;79.40;;;;;;6190951;23;20504;-94
2021/07/07 05:32:21;;;;;;;1.20;1.07;;;25.90;79.50;;;;;;6189586;23;20411;-94
2021/07/07 05:34:52;;;;;;;2.37;1.50;;;25.80;79.40;;;;;;6188273;23;20434;-94
2021/07/07 05:37:22;;;;;;;1.80;1.10;;;25.90;79.50;;;;;;6189752;23;20948;-93
2021/07/07 05:39:51;;;;;;;3.23;1.20;;;26.00;80.00;;;;;;6190202;23;20414;-94
2021/07/07 05:42:20;;;;;;;3.10;1.40;;;25.90;79.70;;;;;;6190853;23;20434;-93
2021/07/07 05:44:48;;;;;;;1.47;1.00;;;25.90;79.50;;;;;;6192080;23;20441;-94
2021/07/07 05:47:15;;;;;;;2.63;1.50;;;25.90;79.50;;;;;;6192867;23;20408;-92
2021/07/07 05:49:42;;;;;;;3.60;1.57;;;25.90;79.40;;;;;;6188267;23;20468;-93
2021/07/07 05:52:09;;;;;;;2.73;1.43;;;25.90;79.40;;;;;;6187422;23;20437;-94
2021/07/07 05:54:38;;;;;;;3.10;1.30;;;25.90;79.40;;;;;;6187297;23;20437;-95
2021/07/07 05:57:07;;;;;;;1.77;1.10;;;25.90;79.40;;;;;;6187314;23;20496;-94
2021/07/07 05:59:34;;;;;;;5.17;1.70;;;25.90;79.50;;;;;;6187054;23;20427;-93
2021/07/07 06:02:01;;;;;;;2.10;1.67;;;25.90;79.10;;;;;;6187395;23;20434;-93
2021/07/07 06:04:28;;;;;;;4.03;1.90;;;25.80;78.30;;;;;;6187599;23;20953;-93
2021/07/07 06:06:55;;;;;;;4.73;1.47;;;25.70;77.90;;;;;;6187175;23;20477;-93
2021/07/07 06:09:21;;;;;;;7.70;1.80;;;25.70;77.70;;;;;;6186826;23;20845;-94
2021/07/07 06:11:49;;;;;;;3.57;1.80;;;25.70;77.80;;;;;;6186458;23;20915;-93
2021/07/07 06:14:18;;;;;;;4.63;2.10;;;25.70;78.10;;;;;;6189770;23;20483;-94
2021/07/07 06:16:45;;;;;;;3.40;1.30;;;25.80;78.50;;;;;;6187840;23;20433;-93
2021/07/07 06:19:12;;;;;;;3.40;1.20;;;25.80;78.80;;;;;;6187549;23;20406;-93
2021/07/07 06:21:39;;;;;;;2.40;1.40;;;25.80;79.10;;;;;;6187463;23;20411;-93
2021/07/07 06:24:06;;;;;;;2.27;1.37;;;25.80;79.10;;;;;;6187656;23;20433;-94
2021/07/07 06:26:34;;;;;;;2.67;1.20;;;25.80;79.20;;;;;;6187191;23;20417;-93
2021/07/07 06:29:04;;;;;;;3.07;1.20;;;25.80;79.10;;;;;;6192831;23;20418;-92
2021/07/07 06:31:34;;;;;;;2.50;1.30;;;25.80;78.90;;;;;;6186262;23;20828;-93
2021/07/07 06:34:01;;;;;;;4.83;1.60;;;25.90;78.50;;;;;;6186721;23;20457;-93
2021/07/07 06:36:27;;;;;;;1.87;1.30;;;25.90;78.30;;;;;;6186875;23;20439;-93
2021/07/07 06:38:54;;;;;;;3.03;1.20;;;25.90;78.50;;;;;;6186567;23;20971;-93
2021/07/07 06:41:21;;;;;;;3.10;1.30;;;25.90;78.80;;;;;;6187715;23;20733;-94
2021/07/07 06:43:48;;;;;;;2.03;1.43;;;25.90;78.60;;;;;;6186566;23;20446;-93
2021/07/07 06:46:15;;;;;;;4.53;1.43;;;25.90;78.70;;;;;;6186920;23;20806;-93
2021/07/07 06:48:44;;;;;;;2.70;1.40;;;25.90;79.00;;;;;;6187273;23;20399;-94
2021/07/07 06:51:11;;;;;;;3.10;1.70;;;25.90;79.20;;;;;;6189989;23;20786;-93
2021/07/07 06:53:38;;;;;;;1.90;1.80;;;25.90;79.20;;;;;;6186573;23;20437;-93
2021/07/07 06:56:09;;;;;;;3.27;1.67;;;25.90;79.20;;;;;;6190269;23;20457;-93
2021/07/07 06:58:48;;;;;;;3.07;1.80;;;25.90;79.40;;;;;;6192140;23;20434;-92
2021/07/07 07:01:41;;;;;;;3.93;1.87;;;25.90;79.40;;;;;;6197453;23;20484;-92
2021/07/07 07:04:27;;;;;;;2.37;2.10;;;25.90;79.40;;;;;;6192025;23;20444;-93
2021/07/07 07:06:54;;;;;;;1.67;1.30;;;25.90;79.40;;;;;;6189934;23;20403;-93
2021/07/07 07:09:22;;;;;;;3.57;1.80;;;25.90;79.50;;;;;;6189819;23;20800;-93
2021/07/07 07:11:49;;;;;;;2.37;1.53;;;25.90;79.50;;;;;;6188420;23;20410;-92
2021/07/07 07:14:15;;;;;;;1.80;1.30;;;25.90;79.50;;;;;;6189920;23;20416;-93
2021/07/07 07:16:43;;;;;;;2.87;1.50;;;25.90;79.50;;;;;;6189264;23;20436;-94
2021/07/07 07:21:46;;;;;;;4.63;2.33;;;26.00;79.50;;;;;;6196366;23;20444;-90
2021/07/07 07:24:13;;;;;;;6.70;2.30;;;25.90;79.50;;;;;;6207878;23;20409;-92
2021/07/07 07:26:40;;;;;;;2.87;1.40;;;26.00;79.40;;;;;;6190694;23;20406;-92
2021/07/07 07:29:09;;;;;;;2.37;1.53;;;26.00;79.40;;;;;;6195932;23;20403;-92
2021/07/07 07:31:38;;;;;;;4.27;2.10;;;26.00;79.50;;;;;;6198520;23;20444;-92
2021/07/07 07:34:13;;;;;;;3.83;1.70;;;26.00;79.50;;;;;;6202285;23;20825;-91
2021/07/07 07:36:44;;;;;;;4.43;2.00;;;26.00;79.50;;;;;;6200400;23;20445;-94
2021/07/07 07:39:18;;;;;;;3.43;2.00;;;26.00;79.50;;;;;;6175277;23;20494;-91
2021/07/07 07:41:46;;;;;;;7.50;2.37;;;26.10;79.60;;;;;;6199225;23;20529;-89
2021/07/07 07:44:14;;;;;;;4.13;1.83;;;26.00;79.60;;;;;;6189333;23;20737;-91
2021/07/07 07:46:42;;;;;;;2.50;1.47;;;26.00;79.60;;;;;;6186168;23;20913;-90
2021/07/07 07:49:11;;;;;;;2.27;1.30;;;26.00;79.60;;;;;;6188342;23;20425;-89
2021/07/07 07:51:38;;;;;;;2.90;2.00;;;26.00;80.50;;;;;;6188523;23;21011;-91
2021/07/07 07:54:05;;;;;;;3.37;1.80;;;26.00;79.70;;;;;;6188841;23;20434;-89
2021/07/07 07:56:33;;;;;;;5.37;2.17;;;26.00;79.70;;;;;;6188226;23;20486;-90
2021/07/07 07:59:00;;;;;;;3.90;1.83;;;26.10;79.80;;;;;;6189174;23;20416;-89
2021/07/07 08:01:27;;;;;;;4.27;2.20;;;26.10;79.80;;;;;;6189306;23;20442;-91
2021/07/07 08:03:54;;;;;;;2.83;2.10;;;26.10;80.70;;;;;;6188660;23;20423;-90
2021/07/07 08:06:21;;;;;;;9.70;2.47;;;26.10;79.80;;;;;;6188756;23;20401;-90
2021/07/07 08:08:48;;;;;;;1.90;1.40;;;26.10;79.80;;;;;;6189689;23;20441;-90
2021/07/07 08:11:15;;;;;;;8.40;1.80;;;26.10;79.80;;;;;;6188538;23;20836;-90
2021/07/07 08:13:44;;;;;;;4.03;1.80;;;26.10;79.90;;;;;;6188571;23;20705;-95
2021/07/07 08:16:11;;;;;;;2.50;2.30;;;26.20;80.00;;;;;;6188205;23;20708;-89
2021/07/07 08:18:38;;;;;;;3.77;1.57;;;26.10;79.90;;;;;;6189267;23;20406;-89
2021/07/07 08:21:05;;;;;;;3.63;1.70;;;26.20;80.00;;;;;;6189854;23;20438;-91
2021/07/07 08:23:32;;;;;;;3.00;1.90;;;26.10;80.00;;;;;;6189046;23;20410;-93
2021/07/07 08:26:00;;;;;;;2.77;1.93;;;26.10;80.00;;;;;;6188476;23;20403;-90
2021/07/07 08:28:27;;;;;;;2.63;1.73;;;26.10;80.10;;;;;;6186514;23;20801;-90
2021/07/07 08:30:55;;;;;;;2.70;1.80;;;26.20;80.20;;;;;;6187102;23;20773;-90
2021/07/07 08:33:22;;;;;;;2.90;1.50;;;26.10;80.10;;;;;;6189300;23;20418;-93
2021/07/07 08:35:49;;;;;;;1.93;1.53;;;26.10;80.10;;;;;;6187538;23;20434;-90
2021/07/07 08:38:16;;;;;;;1.80;1.40;;;26.20;80.20;;;;;;6188149;23;20403;-90
2021/07/07 08:40:43;;;;;;;2.60;1.67;;;26.20;80.30;;;;;;6188814;23;20413;-92
2021/07/07 08:43:10;;;;;;;3.20;1.87;;;26.20;80.30;;;;;;6190497;23;20411;-90
2021/07/07 08:45:38;;;;;;;3.27;1.50;;;26.20;80.30;;;;;;6192084;23;20481;-92
2021/07/07 08:48:12;;;;;;;2.60;1.37;;;26.20;80.30;;;;;;6191325;23;20437;-94
2021/07/07 08:50:40;;;;;;;3.87;1.57;;;26.20;80.30;;;;;;6191021;23;20938;-91
2021/07/07 08:53:13;;;;;;;2.63;1.80;;;26.20;80.40;;;;;;6190328;23;20986;-91
2021/07/07 08:55:42;;;;;;;1.93;1.40;;;26.20;80.30;;;;;;6189779;23;20401;-93
2021/07/07 08:58:09;;;;;;;2.60;1.47;;;26.20;80.30;;;;;;6190701;23;20430;-92
2021/07/07 09:00:37;;;;;;;2.13;1.67;;;26.20;80.30;;;;;;6193338;23;20954;-93
2021/07/07 09:03:09;;;;;;;4.83;1.83;;;26.20;80.40;;;;;;6203629;23;20404;-89
2021/07/07 09:05:51;;;;;;;3.87;1.60;;;26.20;80.30;;;;;;6204386;23;20964;-89
2021/07/07 09:08:26;;;;;;;3.53;1.83;;;26.20;80.30;;;;;;6213404;23;20419;-90
2021/07/07 09:10:54;;;;;;;2.07;1.40;;;26.20;80.40;;;;;;6200862;23;20473;-93
2021/07/07 09:13:22;;;;;;;1.87;1.30;;;26.20;80.40;;;;;;6191760;23;20496;-92
2021/07/07 09:15:49;;;;;;;2.10;1.60;;;26.20;80.40;;;;;;6191607;23;20410;-92
2021/07/07 09:18:35;;;;;;;3.40;1.57;;;26.20;80.40;;;;;;6190546;23;20430;-91
2021/07/07 09:21:04;;;;;;;2.13;1.40;;;26.30;80.50;;;;;;6190469;23;20779;-90
2021/07/07 09:23:32;;;;;;;1.43;1.30;;;26.30;80.50;;;;;;6189814;23;20414;-91
2021/07/07 09:26:01;;;;;;;2.07;1.33;;;26.30;80.50;;;;;;6189215;23;20710;-91
2021/07/07 09:28:32;;;;;;;2.03;1.50;;;26.30;80.40;;;;;;6191117;23;20501;-91
2021/07/07 09:31:01;;;;;;;4.20;1.50;;;26.30;80.50;;;;;;6188948;23;20466;-92
2021/07/07 09:33:29;;;;;;;2.70;1.80;;;26.30;80.40;;;;;;6188343;23;20423;-91
2021/07/07 09:36:19;;;;;;;1.77;1.53;;;26.30;80.40;;;;;;6188022;23;20410;-90
2021/07/07 09:38:49;;;;;;;1.90;1.10;;;26.30;80.40;;;;;;6185938;23;20406;-93
2021/07/07 09:41:17;;;;;;;2.30;1.43;;;26.30;80.50;;;;;;6188679;23;20500;-90
2021/07/07 09:43:48;;;;;;;4.03;1.40;;;26.30;80.50;;;;;;6188828;23;20764;-92
2021/07/07 09:46:17;;;;;;;1.70;1.40;;;26.30;80.40;;;;;;6189779;23;20414;-90
2021/07/07 09:48:48;;;;;;;2.50;1.30;;;26.50;80.60;;;;;;6191025;23;20403;-90
2021/07/07 09:51:15;;;;;;;1.77;1.47;;;26.30;80.50;;;;;;6189713;23;20456;-92
2021/07/07 09:53:43;;;;;;;1.83;1.30;;;26.30;81.40;;;;;;6189693;23;20941;-91
2021/07/07 09:56:11;;;;;;;2.37;1.63;;;26.40;80.60;;;;;;6189449;23;20442;-90
2021/07/07 09:58:37;;;;;;;2.60;1.40;;;26.40;80.60;;;;;;6188684;23;20399;-90
2021/07/07 10:01:05;;;;;;;1.70;1.53;;;26.40;80.50;;;;;;6188802;23;20917;-91
2021/07/07 10:03:33;;;;;;;1.63;1.30;;;26.40;80.60;;;;;;6187442;23;20739;-92
2021/07/07 10:06:02;;;;;;;1.73;1.40;;;26.40;80.60;;;;;;6187639;23;20486;-92
2021/07/07 10:08:29;;;;;;;1.40;1.30;;;26.50;80.70;;;;;;6187333;23;20936;-91
2021/07/07 10:10:59;;;;;;;2.57;1.40;;;26.40;80.60;;;;;;6186551;23;20445;-91
2021/07/07 10:13:27;;;;;;;1.50;1.10;;;26.40;81.40;;;;;;6189809;23;20970;-91
2021/07/07 10:15:54;;;;;;;1.50;1.40;;;26.30;80.50;;;;;;6189194;23;20798;-92
2021/07/07 10:18:22;;;;;;;1.80;1.50;;;26.30;80.50;;;;;;6187549;23;20414;-93
2021/07/07 10:20:49;;;;;;;1.73;1.37;;;26.30;80.50;;;;;;6188620;23;20773;-92
2021/07/07 10:23:18;;;;;;;1.50;1.37;;;26.30;80.50;;;;;;6187934;23;20429;-94
2021/07/07 10:25:46;;;;;;;2.17;1.20;;;26.30;80.50;;;;;;6186582;23;20391;-91
2021/07/07 10:28:16;;;;;;;5.60;1.43;;;26.30;80.50;;;;;;6185083;23;20409;-91
2021/07/07 10:30:48;;;;;;;1.37;1.27;;;26.30;80.50;;;;;;6186788;23;20426;-95
2021/07/07 10:33:16;;;;;;;4.50;1.40;;;26.40;80.60;;;;;;6187876;23;20435;-95
2021/07/07 10:35:43;;;;;;;2.63;1.33;;;26.30;80.50;;;;;;6187696;23;20414;-96
2021/07/07 10:38:10;;;;;;;2.93;1.30;;;26.30;80.60;;;;;;6186607;23;20418;-92
2021/07/07 10:40:39;;;;;;;3.30;1.50;;;26.30;80.60;;;;;;6186352;23;20803;-92
2021/07/07 10:43:06;;;;;;;2.43;1.63;;;26.30;80.50;;;;;;6186327;23;20437;-90
2021/07/07 10:45:37;;;;;;;1.67;1.10;;;26.30;80.50;;;;;;6186588;23;20407;-90
2021/07/07 10:48:25;;;;;;;5.17;1.87;;;26.30;80.60;;;;;;6187796;23;20407;-91
2021/07/07 10:50:53;;;;;;;1.50;1.30;;;26.30;80.50;;;;;;6187540;23;20440;-92
2021/07/07 10:53:25;;;;;;;1.20;1.10;;;26.30;80.60;;;;;;6189288;23;20423;-90
2021/07/07 10:55:52;;;;;;;2.63;1.50;;;26.30;80.50;;;;;;6188378;23;20409;-90
2021/07/07 10:58:27;;;;;;;1.47;1.33;;;26.30;80.50;;;;;;6187590;23;20407;-92
2021/07/07 11:00:56;;;;;;;1.50;1.30;;;26.40;80.60;;;;;;6161646;23;20412;-90
2021/07/07 11:03:35;;;;;;;1.83;1.40;;;26.30;80.50;;;;;;6187453;23;20430;-89
2021/07/07 11:06:27;;;;;;;1.57;1.47;;;26.30;80.50;;;;;;6188082;23;20427;-92
2021/07/07 11:09:11;;;;;;;1.97;1.63;;;26.30;80.40;;;;;;6186298;23;20784;-90
2021/07/07 11:11:39;;;;;;;3.87;1.50;;;26.40;80.50;;;;;;6186918;23;20976;-91
2021/07/07 11:14:15;;;;;;;3.13;2.40;;;26.40;80.40;;;;;;6187087;23;20503;-91
2021/07/07 11:17:01;;;;;;;3.53;1.80;;;26.40;80.40;;;;;;6186773;23;20900;-90
2021/07/07 11:19:45;;;;;;;2.50;1.70;;;26.40;80.30;;;;;;6186679;23;20390;-92
2021/07/07 11:22:14;;;;;;;2.03;1.60;;;26.40;80.20;;;;;;6186288;23;20401;-88
2021/07/07 11:24:45;;;;;;;1.83;1.47;;;26.40;80.20;;;;;;6185884;23;20434;-90
2021/07/07 11:27:13;;;;;;;2.80;1.77;;;26.50;80.20;;;;;;6188968;23;20429;-88
2021/07/07 11:29:40;;;;;;;2.87;1.40;;;26.50;80.20;;;;;;6192135;23;20474;-89
2021/07/07 11:32:31;;;;;;;1.60;1.40;;;26.50;80.20;;;;;;6184939;23;20452;-90
2021/07/07 11:35:00;;;;;;;4.53;2.40;;;26.50;80.10;;;;;;6185686;23;20429;-90
2021/07/07 11:37:29;;;;;;;1.53;1.30;;;26.50;80.00;;;;;;6186814;23;20413;-88
2021/07/07 11:40:14;;;;;;;1.53;1.43;;;26.50;80.00;;;;;;6186098;23;20411;-89
2021/07/07 11:43:00;;;;;;;4.00;1.60;;;26.50;80.00;;;;;;6187172;23;20810;-88
2021/07/07 11:45:31;;;;;;;3.73;1.60;;;26.50;80.00;;;;;;6188248;23;20558;-89
2021/07/07 11:48:05;;;;;;;2.57;1.50;;;26.50;80.00;;;;;;6187791;23;20475;-91
2021/07/07 11:50:32;;;;;;;2.90;1.70;;;26.50;80.00;;;;;;6187774;23;20410;-91
2021/07/07 11:53:01;;;;;;;2.20;1.70;;;26.50;79.90;;;;;;6187889;23;20442;-91
2021/07/07 11:55:48;;;;;;;3.83;1.50;;;26.50;79.80;;;;;;6187954;23;20410;-93
2021/07/07 11:58:23;;;;;;;28.43;8.90;;;26.60;79.80;;;;;;6187884;23;20913;-88
2021/07/07 12:00:50;;;;;;;19.17;8.00;;;26.50;79.70;;;;;;6188486;23;20418;-90
2021/07/07 12:03:22;;;;;;;31.53;8.80;;;26.50;79.80;;;;;;6189046;23;20514;-87
2021/07/07 12:05:53;;;;;;;31.10;11.30;;;26.60;79.90;;;;;;6189046;23;20464;-94
2021/07/07 12:08:22;;;;;;;43.97;14.23;;;26.60;79.90;;;;;;6164290;23;20409;-91
2021/07/07 12:10:50;;;;;;;40.10;11.40;;;26.60;79.80;;;;;;6191508;23;20414;-91
2021/07/07 12:13:22;;;;;;;56.60;14.37;;;26.60;79.80;;;;;;6188938;23;20806;-91
2021/07/07 12:15:48;;;;;;;41.93;11.93;;;26.60;79.70;;;;;;6191994;23;20470;-93
2021/07/07 12:18:28;;;;;;;35.60;12.37;;;26.60;79.60;;;;;;6191045;23;20878;-94
2021/07/07 12:20:58;;;;;;;35.97;11.30;;;26.50;79.50;;;;;;6189871;23;20402;-95
2021/07/07 12:23:25;;;;;;;36.17;11.10;;;26.60;79.60;;;;;;6163370;23;20398;-96
2021/07/07 12:26:10;;;;;;;28.50;10.40;;;26.60;79.50;;;;;;6188697;23;20410;-95
2021/07/07 12:28:41;;;;;;;30.33;10.73;;;26.60;79.40;;;;;;6190036;23;20744;-95
2021/07/07 12:31:11;;;;;;;30.50;9.03;;;26.60;79.50;;;;;;6189441;23;20399;-95
2021/07/07 12:33:40;;;;;;;28.20;9.90;;;26.60;79.50;;;;;;6189396;23;20423;-95
2021/07/07 12:36:07;;;;;;;22.10;8.23;;;26.60;79.50;;;;;;6189935;23;20441;-95
2021/07/07 12:38:34;;;;;;;21.50;9.00;;;26.60;79.40;;;;;;6188626;23;20903;-94
2021/07/07 12:41:02;;;;;;;20.23;7.93;;;26.60;79.30;;;;;;6189991;23;20965;-95
2021/07/07 12:43:40;;;;;;;20.27;7.60;;;26.60;79.10;;;;;;6188809;23;20785;-95
2021/07/07 12:46:09;;;;;;;16.73;5.70;;;26.60;79.00;;;;;;6188885;23;20430;-95
2021/07/07 12:48:51;;;;;;;20.40;6.63;;;26.60;78.90;;;;;;6189210;23;20411;-96
2021/07/07 12:51:33;;;;;;;12.13;4.87;;;26.70;78.90;;;;;;6193631;23;20467;-95
2021/07/07 12:54:01;;;;;;;12.83;5.27;;;26.60;78.70;;;;;;6189561;23;20407;-95
2021/07/07 12:56:28;;;;;;;10.57;5.20;;;26.60;78.80;;;;;;6189496;23;20415;-95
2021/07/07 12:59:12;;;;;;;14.40;4.87;;;26.60;78.70;;;;;;6189299;23;20478;-95